Time;durP1;ratioP1;P1;durP2;ratioP2;P2;SDS_P1;SDS_P2;PMS_P1;PMS_P2;Temp;Humidity;BMP_temperature;BMP_pressure;BME280_temperature;BME280_humidity;BME280_pressure;Samples;Min_cycle;Max_cycle;Signal;HPM_P1;HPM_P2
2022/05/24 00:45:35;;;;;;;9.63;6.72;;;16.60;99.90;;;;;;5475839;23;20057;-80
2022/05/24 00:48:08;;;;;;;10.32;6.53;;;16.60;99.90;;;;;;5038229;28;20383;-81
2022/05/24 00:50:40;;;;;;;6.90;6.20;;;16.60;99.90;;;;;;5024134;28;20503;-80
2022/05/24 00:53:18;;;;;;;7.85;6.47;;;16.60;99.90;;;;;;5020835;28;20026;-81
2022/05/24 00:56:06;;;;;;;11.05;6.07;;;16.60;99.90;;;;;;5019301;28;20022;-80
2022/05/24 00:58:41;;;;;;;10.32;6.30;;;16.50;99.90;;;;;;5015980;28;20395;-81
2022/05/24 01:01:47;;;;;;;9.40;6.00;;;16.50;99.90;;;;;;5021116;28;20033;-82
2022/05/24 01:04:18;;;;;;;9.82;6.28;;;16.50;99.90;;;;;;5039460;28;20116;-80
2022/05/24 01:06:44;;;;;;;8.80;5.95;;;;;;;;;;5021979;28;20026;-81
2022/05/24 01:17:12;;;;;;;8.55;4.63;;;;;;;;;;5162801;22;20049;-80
2022/05/24 01:23:03;;;;;;;7.32;4.72;;;16.60;99.90;;;;;;5043871;28;20049;-82
2022/05/24 01:25:44;;;;;;;6.72;4.20;;;16.60;99.90;;;;;;5027021;28;20056;-80
2022/05/24 01:28:33;;;;;;;5.63;4.22;;;16.60;99.90;;;;;;5028404;28;20025;-80
2022/05/24 01:31:04;;;;;;;6.05;4.45;;;16.60;99.90;;;;;;5026601;28;20045;-79
2022/05/24 01:40:15;;;;;;;5.05;4.00;;;16.30;99.90;;;;;;5009045;28;20147;-80
2022/05/24 01:43:08;;;;;;;5.95;3.60;;;16.30;99.90;;;;;;4990507;28;20042;-79
2022/05/24 01:45:55;;;;;;;4.47;3.90;;;16.20;99.90;;;;;;4960762;28;20043;-80
2022/05/24 01:49:04;;;;;;;4.38;3.63;;;16.20;99.90;;;;;;4956822;28;20049;-79
2022/05/24 01:55:20;;;;;;;4.70;3.25;;;16.20;99.90;;;;;;4978428;28;20093;-80
2022/05/24 01:58:10;;;;;;;6.85;3.80;;;16.20;99.90;;;;;;4964325;28;20024;-78
2022/05/24 02:00:48;;;;;;;4.78;3.20;;;16.20;99.90;;;;;;4985656;28;20106;-79
2022/05/24 02:06:35;;;;;;;4.30;3.08;;;16.10;99.90;;;;;;5014960;28;20101;-80
2022/05/24 02:09:21;;;;;;;5.28;3.45;;;16.10;99.90;;;;;;4999638;28;20499;-79
2022/05/24 02:12:12;;;;;;;3.38;2.60;;;16.10;99.90;;;;;;5012884;28;20035;-79
2022/05/24 02:15:00;;;;;;;5.85;3.20;;;16.10;99.90;;;;;;4984527;28;20053;-79
2022/05/24 02:17:48;;;;;;;4.22;3.00;;;16.00;99.90;;;;;;5000371;28;20037;-80
2022/05/24 02:20:53;;;;;;;5.20;3.45;;;16.00;99.90;;;;;;5010004;28;20030;-79
2022/05/24 02:26:19;;;;;;;8.40;3.13;;;15.90;99.90;;;;;;5021454;28;20464;-79
2022/05/24 02:28:48;;;;;;;4.78;2.60;;;;;;;;;;4989030;28;20019;-79
2022/05/24 02:31:37;;;;;;;4.40;2.87;;;16.00;99.90;;;;;;4964779;28;20077;-79
2022/05/24 02:44:07;;;;;;;5.45;2.88;;;15.60;99.90;;;;;;4941744;28;20474;-83
2022/05/24 02:46:47;;;;;;;4.75;2.80;;;15.50;99.90;;;;;;4976838;28;20050;-80
2022/05/24 02:49:24;;;;;;;3.75;2.88;;;;;;;;;;4989122;28;20023;-79
2022/05/24 02:51:57;;;;;;;4.60;2.58;;;;;;;;;;4980486;28;20026;-79
2022/05/24 02:58:16;;;;;;;3.47;2.00;;;15.50;99.90;;;;;;4986848;28;20523;-79
2022/05/24 03:01:09;;;;;;;5.53;2.10;;;15.40;99.90;;;;;;4972257;28;20035;-79
2022/05/24 03:04:18;;;;;;;2.90;2.00;;;15.40;99.90;;;;;;4944836;29;20058;-79
2022/05/24 03:14:30;;;;;;;3.33;2.17;;;15.30;99.90;;;;;;4974994;28;20026;-80
2022/05/24 03:17:08;;;;;;;5.32;2.40;;;15.40;99.90;;;;;;4984524;28;20034;-78
2022/05/24 03:20:33;;;;;;;5.90;2.50;;;15.20;99.90;;;;;;4998644;28;20497;-79
2022/05/24 03:23:04;;;;;;;4.13;2.70;;;15.20;99.90;;;;;;5020845;28;20057;-78
2022/05/24 03:25:32;;;;;;;4.47;2.55;;;15.20;99.90;;;;;;4982636;28;20031;-77
2022/05/24 03:28:16;;;;;;;3.92;2.58;;;15.20;99.90;;;;;;4995904;28;20034;-79
2022/05/24 03:30:44;;;;;;;3.47;2.25;;;15.30;99.90;;;;;;5011166;28;20042;-78
2022/05/24 03:33:22;;;;;;;3.20;2.03;;;15.30;99.90;;;;;;5033563;28;20037;-78
2022/05/24 03:35:55;;;;;;;3.72;2.30;;;;;;;;;;5036539;28;20122;-78
2022/05/24 03:38:38;;;;;;;2.78;1.90;;;15.10;99.90;;;;;;5018373;28;20038;-78
2022/05/24 03:41:15;;;;;;;4.88;2.53;;;15.20;99.90;;;;;;5024600;28;20049;-78
2022/05/24 03:44:03;;;;;;;2.20;1.73;;;15.30;99.90;;;;;;5018214;28;20053;-79
2022/05/24 03:47:03;;;;;;;;;;;15.20;99.90;;;;;;5018960;28;20035;-78
2022/05/24 03:52:49;;;;;;;2.67;1.98;;;15.30;99.90;;;;;;5014331;28;20030;-79
2022/05/24 03:55:16;;;;;;;2.17;1.60;;;;;;;;;;4981752;28;20030;-79
2022/05/24 04:01:10;;;;;;;2.13;1.58;;;15.20;99.90;;;;;;5017410;23;20104;-81
2022/05/24 04:03:37;;;;;;;2.67;1.55;;;15.10;99.90;;;;;;5002367;28;20076;-80
2022/05/24 04:06:02;;;;;;;5.43;1.70;;;15.10;99.90;;;;;;5003015;28;20049;-81
2022/05/24 04:08:29;;;;;;;3.15;1.90;;;15.00;99.90;;;;;;5004605;28;20025;-80
2022/05/24 04:11:13;;;;;;;2.65;1.20;;;14.90;99.90;;;;;;5021580;28;20505;-84
2022/05/24 04:13:41;;;;;;;2.10;1.20;;;14.80;99.90;;;;;;4999646;28;20080;-80
2022/05/24 04:16:08;;;;;;;1.52;1.00;;;14.90;99.90;;;;;;5021973;28;20051;-80
2022/05/24 04:18:34;;;;;;;5.53;1.70;;;14.90;99.90;;;;;;5003450;28;20033;-81
2022/05/24 04:21:01;;;;;;;2.55;1.40;;;14.90;99.90;;;;;;5023998;28;20022;-81
2022/05/24 04:23:27;;;;;;;1.70;0.90;;;14.90;99.90;;;;;;5004207;28;20098;-79
2022/05/24 04:25:54;;;;;;;3.22;1.25;;;14.70;99.90;;;;;;5018874;28;20080;-83
2022/05/24 04:28:20;;;;;;;2.15;1.10;;;14.70;99.90;;;;;;4988018;28;20030;-83
2022/05/24 04:30:48;;;;;;;3.42;1.33;;;14.60;99.90;;;;;;5024035;28;20155;-80
2022/05/24 04:33:15;;;;;;;2.83;1.27;;;14.50;99.90;;;;;;5005100;28;20022;-82
2022/05/24 04:35:41;;;;;;;1.40;1.10;;;14.70;99.90;;;;;;5023508;28;20022;-82
2022/05/24 04:38:07;;;;;;;4.78;1.30;;;14.70;99.90;;;;;;5003378;28;20044;-81
2022/05/24 04:43:17;;;;;;;2.72;1.52;;;14.70;99.90;;;;;;5018176;28;20045;-81
2022/05/24 04:45:42;;;;;;;6.95;1.35;;;14.70;99.90;;;;;;4996675;28;20026;-80
2022/05/24 04:48:08;;;;;;;3.03;1.38;;;14.70;99.90;;;;;;5017484;28;20019;-85
2022/05/24 04:50:36;;;;;;;4.07;1.50;;;14.60;99.90;;;;;;5002505;28;20136;-81
2022/05/24 04:53:02;;;;;;;1.95;1.30;;;14.60;99.90;;;;;;5018657;28;20041;-85
2022/05/24 04:55:28;;;;;;;5.68;1.80;;;14.70;99.90;;;;;;5004213;28;20030;-82
2022/05/24 04:57:56;;;;;;;3.55;1.30;;;14.70;99.90;;;;;;5001591;28;20065;-79
2022/05/24 05:00:23;;;;;;;3.05;1.33;;;14.80;99.90;;;;;;5018327;28;20396;-81
2022/05/24 05:02:49;;;;;;;1.55;0.95;;;14.80;99.90;;;;;;5018905;28;20034;-81
2022/05/24 05:05:15;;;;;;;3.17;1.20;;;14.90;99.90;;;;;;5006421;28;20010;-83
2022/05/24 05:07:42;;;;;;;1.88;1.10;;;14.90;99.90;;;;;;5020451;28;20053;-82
2022/05/24 05:10:10;;;;;;;2.38;1.35;;;15.00;99.90;;;;;;5001361;28;20018;-85
2022/05/24 05:12:36;;;;;;;3.28;1.67;;;15.00;99.90;;;;;;5013188;28;20022;-83
2022/05/24 05:15:05;;;;;;;3.50;1.75;;;17.10;99.90;;;;;;5000222;28;20057;-81
2022/05/24 05:17:31;;;;;;;3.15;1.20;;;15.00;99.90;;;;;;5019862;28;20056;-82
2022/05/24 05:19:59;;;;;;;3.97;1.58;;;14.90;99.90;;;;;;4999565;28;20025;-83
2022/05/24 05:22:25;;;;;;;6.25;1.40;;;14.90;99.90;;;;;;5005810;28;20042;-83
2022/05/24 05:24:52;;;;;;;1.98;1.20;;;;;;;;;;5004572;28;20507;-82
2022/05/24 05:27:19;;;;;;;3.90;1.42;;;14.80;99.90;;;;;;4999275;28;20029;-82
2022/05/24 05:32:32;;;;;;;3.08;1.30;;;14.80;99.90;;;;;;5024862;28;20025;-82
2022/05/24 05:34:59;;;;;;;3.25;1.52;;;14.70;99.90;;;;;;5022958;28;20052;-83
2022/05/24 05:37:28;;;;;;;2.97;1.30;;;14.70;99.90;;;;;;5023726;28;20064;-84
2022/05/24 05:39:54;;;;;;;2.70;1.38;;;14.70;99.90;;;;;;5009148;28;20026;-84
2022/05/24 05:42:20;;;;;;;6.05;1.20;;;14.70;99.90;;;;;;5004927;28;20022;-82
2022/05/24 05:44:49;;;;;;;2.42;1.30;;;14.70;99.90;;;;;;5005279;28;20058;-83
2022/05/24 05:47:16;;;;;;;2.83;1.50;;;14.80;99.90;;;;;;4987637;28;20292;-84
2022/05/24 05:49:42;;;;;;;4.55;1.92;;;14.70;99.90;;;;;;5004515;28;20110;-83
2022/05/24 05:52:08;;;;;;;2.13;1.40;;;14.70;99.90;;;;;;5004979;28;20022;-84
2022/05/24 05:54:34;;;;;;;2.58;1.40;;;14.60;99.90;;;;;;4987205;28;20356;-85
2022/05/24 05:57:00;;;;;;;3.20;1.60;;;14.70;99.90;;;;;;4985470;28;20073;-84
2022/05/24 05:59:26;;;;;;;3.75;1.40;;;14.80;99.90;;;;;;4981899;28;20041;-83
2022/05/24 06:01:56;;;;;;;2.13;1.45;;;14.70;99.90;;;;;;4997959;28;20037;-84
2022/05/24 06:04:22;;;;;;;3.40;1.70;;;14.80;99.90;;;;;;5025121;28;20108;-83
2022/05/24 06:06:48;;;;;;;2.92;1.58;;;14.70;99.90;;;;;;4988336;28;20065;-80
2022/05/24 06:09:14;;;;;;;3.25;1.40;;;14.70;99.90;;;;;;5003532;28;20021;-81
2022/05/24 06:11:41;;;;;;;3.25;1.60;;;14.60;99.90;;;;;;5007963;28;20090;-83
2022/05/24 06:14:08;;;;;;;3.17;1.77;;;14.60;99.90;;;;;;5007447;28;20026;-81
2022/05/24 06:16:34;;;;;;;4.18;1.65;;;14.60;99.90;;;;;;5005193;28;20032;-82
2022/05/24 06:19:00;;;;;;;4.90;1.65;;;14.70;99.90;;;;;;5002327;28;20040;-80
2022/05/24 06:21:25;;;;;;;4.53;2.53;;;14.80;99.90;;;;;;5017423;28;20059;-85
2022/05/24 06:23:51;;;;;;;4.32;1.75;;;14.80;99.90;;;;;;5006950;28;20046;-82
2022/05/24 06:26:19;;;;;;;5.35;2.00;;;14.80;99.90;;;;;;5022120;28;20037;-81
2022/05/24 06:28:46;;;;;;;3.50;1.52;;;14.80;99.90;;;;;;5010397;28;20028;-85
2022/05/24 06:31:11;;;;;;;4.80;2.05;;;14.80;99.90;;;;;;5008812;28;20026;-82
2022/05/24 06:33:37;;;;;;;3.97;1.60;;;14.90;99.90;;;;;;5006080;28;20026;-81
2022/05/24 06:36:03;;;;;;;4.93;1.83;;;14.90;99.90;;;;;;5005273;28;20052;-81
2022/05/24 06:38:28;;;;;;;3.42;1.77;;;15.00;99.90;;;;;;5006084;28;20041;-85
2022/05/24 06:40:54;;;;;;;3.42;1.58;;;14.90;99.90;;;;;;4999865;28;20026;-81
2022/05/24 06:43:20;;;;;;;3.63;1.45;;;14.90;99.90;;;;;;5003442;28;20065;-81
2022/05/24 06:45:45;;;;;;;2.92;1.23;;;15.10;99.90;;;;;;5002517;28;20037;-81
2022/05/24 06:48:12;;;;;;;3.67;1.42;;;15.30;99.90;;;;;;5019846;28;20018;-83
2022/05/24 06:50:40;;;;;;;2.92;1.25;;;15.80;99.90;;;;;;4988826;28;20121;-80
2022/05/24 06:53:06;;;;;;;3.20;1.15;;;15.90;99.90;;;;;;5006036;28;20030;-81
2022/05/24 06:55:31;;;;;;;2.70;1.20;;;16.00;99.90;;;;;;5021658;28;20027;-80
2022/05/24 06:57:57;;;;;;;2.22;1.30;;;16.00;99.90;;;;;;5005770;28;20025;-80
2022/05/24 07:03:13;;;;;;;1.77;1.20;;;16.00;99.90;;;;;;5006887;28;20045;-81
2022/05/24 07:05:41;;;;;;;2.53;1.50;;;15.80;99.90;;;;;;5018817;28;20026;-83
2022/05/24 07:08:07;;;;;;;4.10;1.48;;;15.90;99.90;;;;;;5006636;28;20021;-80
2022/05/24 07:10:34;;;;;;;2.03;0.90;;;16.00;99.90;;;;;;5019582;28;20204;-83
2022/05/24 07:13:09;;;;;;;3.80;1.20;;;16.00;99.90;;;;;;4996640;28;20030;-83
2022/05/24 07:15:35;;;;;;;1.92;1.10;;;16.10;99.90;;;;;;5017447;28;20026;-81
2022/05/24 07:18:01;;;;;;;3.30;1.30;;;16.20;99.90;;;;;;5019459;28;20097;-81
2022/05/24 07:20:28;;;;;;;3.55;1.20;;;16.00;99.90;;;;;;5008166;28;20030;-82
2022/05/24 07:23:04;;;;;;;2.08;1.10;;;15.90;99.90;;;;;;5020469;28;20033;-83
2022/05/24 07:25:30;;;;;;;2.50;1.20;;;16.00;99.90;;;;;;5017012;28;20033;-81
2022/05/24 07:27:56;;;;;;;4.50;1.80;;;15.90;99.90;;;;;;5002459;28;20022;-80
2022/05/24 07:30:21;;;;;;;4.60;1.40;;;15.90;99.90;;;;;;5001143;28;20050;-83
2022/05/24 07:32:47;;;;;;;3.72;1.60;;;15.80;99.90;;;;;;5004038;28;20018;-84
2022/05/24 07:35:13;;;;;;;2.47;1.38;;;15.90;99.90;;;;;;4997426;28;20066;-84
2022/05/24 07:37:39;;;;;;;3.63;1.23;;;15.90;99.90;;;;;;4992723;28;20026;-83
2022/05/24 07:45:48;;;;;;;3.63;1.05;;;16.40;99.90;;;;;;5003711;28;20044;-82
2022/05/24 07:48:17;;;;;;;3.05;1.08;;;16.60;99.90;;;;;;4998888;28;20100;-82
2022/05/24 07:50:43;;;;;;;2.92;1.40;;;16.80;99.90;;;;;;5000318;28;20029;-82
2022/05/24 07:53:09;;;;;;;4.68;1.35;;;16.70;99.90;;;;;;4999842;28;20057;-82
2022/05/24 07:55:36;;;;;;;5.18;2.00;;;16.60;99.90;;;;;;5017867;28;20034;-82
2022/05/24 07:58:02;;;;;;;4.80;1.08;;;16.70;99.90;;;;;;4997571;28;20053;-83
2022/05/24 08:00:28;;;;;;;4.43;1.42;;;16.80;99.90;;;;;;5003601;28;20049;-82
2022/05/24 08:02:54;;;;;;;2.10;1.00;;;16.70;99.90;;;;;;5018305;28;20026;-85
2022/05/24 08:05:21;;;;;;;5.68;1.50;;;16.70;99.90;;;;;;5012337;28;20105;-82
2022/05/24 08:07:46;;;;;;;8.27;1.63;;;16.40;99.90;;;;;;5020325;28;20014;-85
2022/05/24 08:10:13;;;;;;;2.72;0.82;;;16.40;99.90;;;;;;5037438;28;20022;-85
2022/05/24 08:12:40;;;;;;;2.40;1.27;;;16.50;99.90;;;;;;5037373;28;20025;-86
2022/05/24 08:15:07;;;;;;;3.08;1.20;;;16.50;99.90;;;;;;5018580;28;20014;-83
2022/05/24 08:17:34;;;;;;;5.30;1.30;;;16.40;99.90;;;;;;5019795;28;20050;-83
2022/05/24 08:20:00;;;;;;;3.38;1.00;;;16.30;99.90;;;;;;4995638;28;20030;-80
2022/05/24 08:22:25;;;;;;;3.25;1.10;;;16.20;99.90;;;;;;5002544;28;20115;-81
2022/05/24 08:24:51;;;;;;;5.68;1.50;;;16.50;99.90;;;;;;5019656;28;20018;-82
2022/05/24 08:27:17;;;;;;;1.75;0.95;;;;;;;;;;5002226;28;20026;-81
2022/05/24 08:29:44;;;;;;;5.05;1.20;;;16.80;99.90;;;;;;5003706;28;20037;-84
2022/05/24 08:32:11;;;;;;;5.03;1.40;;;17.30;99.90;;;;;;5018004;28;20053;-83
2022/05/24 08:34:38;;;;;;;3.50;1.40;;;17.30;99.90;;;;;;4999848;28;20037;-82
2022/05/24 08:37:05;;;;;;;7.93;2.88;;;17.40;99.90;;;;;;5020959;28;20396;-82
2022/05/24 08:39:31;;;;;;;6.90;1.10;;;17.60;99.90;;;;;;5004457;28;20034;-82
2022/05/24 08:42:20;;;;;;;4.38;1.40;;;17.60;99.90;;;;;;5000019;28;20049;-81
2022/05/24 08:50:44;;;;;;;2.40;1.30;;;17.80;99.90;;;;;;5020510;28;20037;-86
2022/05/24 08:53:13;;;;;;;4.70;1.60;;;17.90;99.90;;;;;;5006405;28;20033;-84
2022/05/24 08:55:40;;;;;;;4.18;1.20;;;17.80;99.90;;;;;;5005639;28;20049;-81
2022/05/24 08:58:14;;;;;;;3.10;1.10;;;17.80;99.90;;;;;;5005898;28;20026;-84
2022/05/24 09:00:42;;;;;;;2.28;1.08;;;17.90;99.90;;;;;;5001005;28;20034;-82
2022/05/24 09:03:09;;;;;;;5.78;1.58;;;17.90;99.90;;;;;;5004269;28;20022;-82
2022/05/24 09:05:45;;;;;;;3.55;1.40;;;18.10;99.90;;;;;;5008058;28;20033;-83
2022/05/24 09:08:53;;;;;;;4.65;1.40;;;18.50;99.90;;;;;;5028448;28;20026;-84
2022/05/24 09:11:43;;;;;;;2.58;1.10;;;18.60;99.90;;;;;;5004822;28;20416;-85
2022/05/24 09:14:18;;;;;;;2.63;1.00;;;18.90;99.90;;;;;;5004431;28;20022;-83
2022/05/24 09:16:52;;;;;;;2.65;0.82;;;18.90;99.90;;;;;;5008073;28;20038;-84
2022/05/24 09:19:32;;;;;;;4.10;0.95;;;18.40;99.90;;;;;;5022871;28;20045;-82
2022/05/24 09:22:04;;;;;;;3.80;1.00;;;18.30;99.90;;;;;;5007515;28;20053;-84
2022/05/24 09:24:37;;;;;;;2.05;0.90;;;18.00;99.90;;;;;;5005811;28;20034;-84
2022/05/24 09:27:09;;;;;;;2.72;1.00;;;17.70;99.90;;;;;;5007077;28;20057;-85
2022/05/24 09:30:08;;;;;;;3.05;0.90;;;17.60;99.90;;;;;;5018753;28;20072;-81
2022/05/24 09:32:38;;;;;;;2.22;0.90;;;17.50;99.90;;;;;;5000338;28;20054;-81
2022/05/24 09:35:26;;;;;;;4.07;1.10;;;17.30;99.90;;;;;;5008191;28;20018;-84
2022/05/24 09:38:03;;;;;;;3.00;1.00;;;17.40;99.90;;;;;;5007780;28;20058;-84
2022/05/24 09:40:38;;;;;;;3.25;1.20;;;17.80;99.90;;;;;;5002123;28;20029;-82
2022/05/24 09:43:33;;;;;;;3.17;0.93;;;17.70;99.90;;;;;;5014922;28;20436;-84
2022/05/24 09:46:13;;;;;;;4.18;1.00;;;17.90;99.90;;;;;;5006033;28;20507;-82
2022/05/24 09:49:06;;;;;;;2.08;0.80;;;18.10;99.90;;;;;;5025045;28;20091;-84
2022/05/24 09:51:40;;;;;;;2.17;0.90;;;18.30;99.80;;;;;;5001789;28;20044;-85
2022/05/24 09:54:13;;;;;;;1.80;0.90;;;18.70;99.40;;;;;;5008930;28;20018;-84
2022/05/24 09:56:39;;;;;;;6.20;1.20;;;19.00;98.30;;;;;;5006724;28;20518;-81
2022/05/24 09:59:23;;;;;;;6.47;1.10;;;19.30;98.10;;;;;;5026104;28;20093;-83
2022/05/24 10:01:50;;;;;;;2.30;0.88;;;;;;;;;;5065788;23;20053;-83
2022/05/24 10:04:28;;;;;;;4.72;1.20;;;;;;;;;;5067197;28;20035;-85
2022/05/24 10:06:54;;;;;;;2.22;1.00;;;;;;;;;;5043500;28;20048;-84
2022/05/24 10:09:20;;;;;;;3.80;1.00;;;;;;;;;;5053638;28;20017;-83
2022/05/24 10:11:59;;;;;;;3.95;1.13;;;19.20;97.30;;;;;;5057485;28;20017;-84
2022/05/24 10:15:03;;;;;;;7.03;2.42;;;19.00;97.80;;;;;;5044087;28;20650;-82
2022/05/24 10:17:46;;;;;;;5.30;2.17;;;;;;;;;;5057425;28;20028;-83
2022/05/24 10:20:33;;;;;;;7.25;1.55;;;18.50;98.70;;;;;;5060422;28;20010;-83
2022/05/24 10:23:02;;;;;;;6.72;2.08;;;;;;;;;;5039027;28;20029;-85
2022/05/24 10:25:30;;;;;;;4.28;1.75;;;;;;;;;;5043270;28;20013;-85
2022/05/24 10:28:20;;;;;;;4.70;2.42;;;;;;;;;;5111192;22;20653;-82
2022/05/24 11:31:23;;;;;;;2.58;0.80;;;;;;;;;;5206519;22;20040;-82
2022/05/24 11:33:52;;;;;;;3.30;1.00;;;18.70;95.60;;;;;;5078720;28;20043;-82
2022/05/24 11:36:37;;;;;;;1.42;0.73;;;;;;;;;;5078896;28;20005;-84
2022/05/24 11:39:28;;;;;;;3.03;0.80;;;18.60;95.90;;;;;;5079002;28;20081;-82
2022/05/24 11:42:24;;;;;;;1.33;0.68;;;18.50;95.40;;;;;;5049886;28;20029;-83
2022/05/24 11:44:58;;;;;;;1.42;0.88;;;;;;;;;;5071096;28;20012;-83
2022/05/24 11:47:57;;;;;;;1.95;0.75;;;18.40;95.80;;;;;;5078458;28;20056;-82
2022/05/24 11:58:22;;;;;;;2.03;0.90;;;;;;;;;;3395946;26;20047;-82
2022/05/24 12:01:13;;;;;;;2.73;0.83;;;19.40;94.10;;;;;;5111581;28;20012;-82
2022/05/24 12:17:53;;;;;;;3.58;0.70;;;20.80;91.00;;;;;;3367840;26;20056;-83
2022/05/24 12:23:07;;;;;;;2.70;0.50;;;20.60;90.50;;;;;;3294976;26;20135;-84
2022/05/24 12:26:04;;;;;;;1.15;0.60;;;20.60;89.60;;;;;;5052826;28;20013;-82
2022/05/24 12:28:37;;;;;;;4.32;0.70;;;;;;;;;;5055062;28;20020;-83
2022/05/24 12:31:23;;;;;;;2.55;0.80;;;;;;;;;;5071692;28;20021;-82
2022/05/24 12:34:08;;;;;;;2.25;0.70;;;20.50;90.30;;;;;;5067780;28;20028;-81
2022/05/24 12:36:46;;;;;;;1.33;0.75;;;20.40;89.40;;;;;;5066431;28;20013;-84
2022/05/24 12:39:17;;;;;;;2.08;0.90;;;20.30;89.10;;;;;;5057443;28;20018;-83
2022/05/24 12:41:55;;;;;;;2.80;1.20;;;20.00;89.00;;;;;;5057566;28;20081;-82
2022/05/24 12:49:35;;;;;;;2.00;0.60;;;19.60;89.00;;;;;;4407049;26;20043;-82
2022/05/24 12:52:13;;;;;;;1.70;0.70;;;19.50;89.00;;;;;;5078398;28;20013;-84
2022/05/24 12:54:49;;;;;;;4.57;1.60;;;19.90;89.40;;;;;;5077659;28;20021;-80
2022/05/24 12:57:18;;;;;;;17.02;6.95;;;;;;;;;;5077535;28;20019;-82
2022/05/24 12:59:57;;;;;;;2.92;0.90;;;20.70;87.20;;;;;;5077060;28;20013;-84
2022/05/24 13:02:38;;;;;;;4.35;1.40;;;21.00;86.90;;;;;;5077157;28;20025;-83
2022/05/24 13:05:10;;;;;;;3.60;1.20;;;20.80;86.80;;;;;;5087917;22;20036;-83
2022/05/24 13:07:41;;;;;;;4.95;1.50;;;20.60;87.90;;;;;;5095843;28;20045;-82
2022/05/24 13:10:13;;;;;;;9.50;1.80;;;20.50;87.10;;;;;;5081001;28;20029;-83
2022/05/24 13:12:39;;;;;;;3.17;1.00;;;;;;;;;;5060995;28;20017;-85
2022/05/24 13:15:18;;;;;;;1.77;0.90;;;20.40;87.90;;;;;;5077906;28;20044;-82
2022/05/24 13:18:41;;;;;;;2.13;0.80;;;20.30;88.20;;;;;;5099184;22;20041;-82
2022/05/24 13:21:23;;;;;;;2.03;0.90;;;20.00;88.60;;;;;;5085644;28;20025;-82
2022/05/24 13:24:18;;;;;;;3.70;1.25;;;20.10;89.90;;;;;;5075756;28;20021;-83
2022/05/24 13:27:25;;;;;;;2.83;1.15;;;19.90;89.90;;;;;;5083526;28;20043;-82
2022/05/24 13:33:37;;;;;;;1.63;0.70;;;19.00;90.90;;;;;;5067874;28;20149;-81
2022/05/24 13:36:19;;;;;;;1.73;0.90;;;18.70;92.30;;;;;;5078323;28;20020;-82
2022/05/24 13:38:49;;;;;;;2.78;0.88;;;18.60;92.70;;;;;;5058388;28;20021;-82
2022/05/24 13:41:39;;;;;;;3.00;0.70;;;18.40;94.30;;;;;;5077236;28;20020;-80
2022/05/24 13:44:22;;;;;;;2.28;0.82;;;18.30;95.30;;;;;;5067058;28;20039;-82
2022/05/24 13:47:09;;;;;;;4.93;1.00;;;18.40;94.70;;;;;;5083214;28;20033;-82
2022/05/24 13:49:46;;;;;;;2.30;0.70;;;18.60;93.40;;;;;;5077235;28;20028;-81
2022/05/24 13:52:17;;;;;;;1.10;0.70;;;18.80;92.70;;;;;;5077114;28;20085;-80
2022/05/24 13:54:50;;;;;;;3.53;0.88;;;19.00;92.60;;;;;;5081278;28;20021;-82
2022/05/24 13:57:31;;;;;;;1.38;0.68;;;19.40;92.50;;;;;;5077286;28;20063;-81
2022/05/24 14:00:13;;;;;;;2.33;0.77;;;19.90;92.00;;;;;;5059715;28;20024;-81
2022/05/24 14:02:42;;;;;;;1.63;0.80;;;20.10;91.10;;;;;;5073162;28;20058;-80
2022/05/24 14:05:29;;;;;;;4.10;1.30;;;20.30;90.80;;;;;;5080948;28;20028;-82
2022/05/24 14:07:56;;;;;;;1.27;0.80;;;;;;;;;;5086017;28;20508;-82
2022/05/24 14:10:26;;;;;;;2.97;0.98;;;19.90;91.90;;;;;;5087990;28;20035;-82
2022/05/24 14:12:55;;;;;;;2.08;1.00;;;19.70;91.60;;;;;;5075725;28;20048;-80
2022/05/24 14:15:27;;;;;;;8.45;4.38;;;19.80;92.00;;;;;;5081876;28;20029;-81
2022/05/24 14:17:55;;;;;;;1.55;0.80;;;19.60;91.50;;;;;;5086639;28;20023;-80
2022/05/24 14:20:22;;;;;;;1.30;0.82;;;;;;;;;;5071761;28;20071;-80
2022/05/24 14:22:54;;;;;;;3.38;1.38;;;;;;;;;;5085210;28;20048;-81
2022/05/24 14:25:21;;;;;;;2.85;1.58;;;19.30;92.20;;;;;;5083629;28;20017;-80
2022/05/24 14:27:48;;;;;;;5.07;1.85;;;;;;;;;;5086698;28;20362;-81
2022/05/24 14:30:17;;;;;;;3.83;2.03;;;19.70;92.10;;;;;;5059552;28;20025;-81
2022/05/24 14:32:45;;;;;;;2.45;0.80;;;;;;;;;;5066920;28;20079;-81
2022/05/24 14:35:15;;;;;;;2.63;0.90;;;;;;;;;;5093560;28;20099;-81
2022/05/24 14:37:43;;;;;;;3.22;0.80;;;;;;;;;;5071445;28;20283;-80
2022/05/24 14:40:13;;;;;;;0.75;0.60;;;;;;;;;;5081644;28;20111;-81
2022/05/24 14:42:49;;;;;;;3.30;1.00;;;20.40;90.60;;;;;;5084097;28;20036;-81
2022/05/24 14:45:20;;;;;;;5.00;1.83;;;20.60;90.10;;;;;;5074003;28;20046;-81
2022/05/24 14:47:49;;;;;;;1.65;0.90;;;20.60;88.40;;;;;;5052664;28;20396;-81
2022/05/24 14:50:17;;;;;;;3.65;1.05;;;20.60;88.90;;;;;;5079302;28;20100;-80
2022/05/24 14:52:52;;;;;;;4.03;0.88;;;20.60;88.70;;;;;;5081916;28;20024;-81
2022/05/24 14:55:24;;;;;;;1.98;0.90;;;20.70;88.20;;;;;;5073864;28;20051;-81
2022/05/24 14:57:51;;;;;;;1.58;0.65;;;;;;;;;;5071176;28;20025;-81
2022/05/24 15:00:26;;;;;;;2.00;1.20;;;20.50;89.50;;;;;;5092175;28;20035;-81
2022/05/24 15:02:52;;;;;;;1.52;0.75;;;;;;;;;;5079816;28;20032;-81
2022/05/24 15:05:19;;;;;;;5.18;1.17;;;;;;;;;;5084656;28;20115;-80
2022/05/24 15:16:25;;;;;;;2.60;1.00;;;19.70;90.50;;;;;;5080185;28;20044;-81
2022/05/24 15:18:53;;;;;;;3.38;1.13;;;19.70;90.40;;;;;;5071734;28;20042;-81
2022/05/24 15:21:23;;;;;;;2.08;0.90;;;19.80;87.10;;;;;;5066253;28;20485;-81
2022/05/24 15:23:56;;;;;;;1.20;0.70;;;19.90;87.10;;;;;;5065267;28;20091;-80
2022/05/24 15:26:34;;;;;;;2.88;1.20;;;19.90;87.70;;;;;;5068009;28;20035;-80
2022/05/24 15:29:02;;;;;;;1.75;0.73;;;20.00;85.20;;;;;;5081551;28;20016;-81
2022/05/24 15:31:28;;;;;;;2.35;1.15;;;;;;;;;;5078092;28;20077;-81
2022/05/24 15:33:56;;;;;;;2.97;0.80;;;;;;;;;;5079074;28;20381;-81
2022/05/24 15:36:22;;;;;;;3.00;0.90;;;;;;;;;;5069351;28;20032;-81
2022/05/24 15:38:50;;;;;;;1.98;0.88;;;19.60;84.40;;;;;;5079937;28;20036;-81
2022/05/24 15:41:44;;;;;;;3.60;1.10;;;19.70;85.00;;;;;;5066155;28;20025;-81
2022/05/24 15:44:11;;;;;;;2.13;1.00;;;;;;;;;;5078544;28;20032;-81
2022/05/24 15:46:40;;;;;;;2.63;1.00;;;19.60;87.00;;;;;;5079180;28;20033;-81
2022/05/24 15:49:10;;;;;;;2.78;0.70;;;;;;;;;;5081856;28;20024;-81
2022/05/24 15:51:37;;;;;;;0.82;0.60;;;19.60;86.80;;;;;;5084959;28;20465;-80
2022/05/24 15:54:04;;;;;;;3.40;0.85;;;19.60;87.30;;;;;;5077852;28;20055;-81
2022/05/24 15:56:31;;;;;;;3.50;1.27;;;19.70;87.40;;;;;;5073682;28;20055;-81
2022/05/24 15:59:00;;;;;;;3.50;1.30;;;19.70;88.20;;;;;;5079040;28;20024;-81
2022/05/24 16:01:26;;;;;;;4.13;1.70;;;19.80;87.50;;;;;;5093266;22;20356;-83
2022/05/24 16:03:52;;;;;;;5.10;2.25;;;;;;;;;;5032271;28;20033;-83
2022/05/24 16:11:50;;;;;;;1.95;1.10;;;20.00;85.80;;;;;;5059779;28;20075;-84
2022/05/24 16:14:22;;;;;;;5.32;1.50;;;19.80;86.60;;;;;;5060760;28;20055;-81
2022/05/24 16:16:49;;;;;;;2.60;1.05;;;19.90;87.20;;;;;;5062312;28;20053;-84
2022/05/24 16:19:15;;;;;;;1.77;0.60;;;20.10;86.10;;;;;;5043907;28;20028;-84
2022/05/24 16:21:41;;;;;;;1.98;0.70;;;19.90;85.50;;;;;;5056602;28;20028;-83
2022/05/24 16:24:10;;;;;;;2.45;0.80;;;19.80;85.50;;;;;;5058552;28;20489;-83
2022/05/24 16:26:36;;;;;;;3.70;1.40;;;19.90;85.40;;;;;;5057530;28;20247;-82
2022/05/24 16:29:05;;;;;;;2.60;0.85;;;19.90;85.90;;;;;;5046501;28;20022;-82
2022/05/24 16:31:32;;;;;;;2.90;1.77;;;19.80;86.10;;;;;;5053850;28;20068;-83
2022/05/24 16:33:58;;;;;;;4.20;1.63;;;19.80;86.40;;;;;;5049634;28;20040;-83
2022/05/24 16:36:24;;;;;;;5.22;2.17;;;19.80;87.00;;;;;;5040508;28;20141;-84
2022/05/24 16:38:51;;;;;;;3.22;1.27;;;19.60;86.00;;;;;;5050093;28;20025;-81
2022/05/24 16:41:18;;;;;;;4.47;2.17;;;;;;;;;;5054976;28;20024;-82
2022/05/24 16:43:43;;;;;;;4.43;0.85;;;19.50;86.50;;;;;;5042767;28;20025;-83
2022/05/24 16:46:09;;;;;;;7.47;2.95;;;;;;;;;;5058296;28;20055;-82
2022/05/24 16:48:36;;;;;;;6.68;2.75;;;19.60;89.00;;;;;;5054161;28;20485;-82
2022/05/24 16:51:05;;;;;;;3.25;1.70;;;19.60;89.60;;;;;;5044189;28;20084;-85
2022/05/24 16:53:34;;;;;;;3.45;0.85;;;19.40;88.90;;;;;;5037115;28;20401;-83
2022/05/24 16:58:46;;;;;;;1.73;0.70;;;20.00;82.80;;;;;;5058967;28;20063;-84
2022/05/24 17:01:13;;;;;;;2.63;1.00;;;20.00;83.20;;;;;;5042963;28;20025;-84
2022/05/24 17:03:38;;;;;;;2.95;0.60;;;19.50;82.80;;;;;;5045855;28;20029;-85
2022/05/24 17:06:05;;;;;;;1.55;0.77;;;19.50;83.60;;;;;;5042649;28;20500;-84
2022/05/24 17:08:31;;;;;;;1.50;0.70;;;19.50;83.70;;;;;;5059797;28;20528;-85
2022/05/24 17:10:58;;;;;;;2.53;0.70;;;19.30;82.30;;;;;;5057366;28;20022;-85
2022/05/24 17:13:25;;;;;;;2.20;0.90;;;19.10;82.60;;;;;;5039107;28;20033;-85
2022/05/24 17:15:50;;;;;;;2.42;0.80;;;19.10;84.20;;;;;;5044685;28;20033;-82
2022/05/24 17:18:17;;;;;;;3.13;1.08;;;19.10;83.90;;;;;;5043308;28;20021;-84
2022/05/24 17:20:44;;;;;;;4.45;1.20;;;19.00;85.50;;;;;;5047962;28;20036;-86